Pagrindinis puslapis
METAR-TAF:

METAR-TAF

Oro uostai :

Kingstonas, Jamaika

platuma: 17-56N, ilguma: 076-47W, Aukštis: 3 m

Dabartinis oras

Ataskaita buvo paskelbta 20 minutes, ne 14:00 UTC
Vėjas 3 kt iš Vakarų
Temperatūra 28°C
Drėgmė 66%
Slėgis 1015 hPa
Matomumas 10 km arba daugiau
Mažai debesys ne aukštis 1800 ft
Mažai debesys ne aukštis 2200 ft, Liūtiniai kamuoliniai debesys.

METAR: MKJP 211400Z 28003KT 9999 FEW018 FEW022CB 28/21 Q1015

Laikas: 09:20 (14:20 UTC)

Prognozė

Ataskaita buvo paskelbta 3 valandos ir 5 minutes, ne 11:15 UTC
Prognozė galioja nuo 21 metu 12 UTC su 22 metu 12 UTC
Vėjas 6 kt iš Šiaurės
Matomumas 10 km arba daugiau
Mažai debesys ne aukštis 2200 ft
Tapsmas
nuo 21 metu 14 UTC su 21 metu 16 UTC
Vėjas 15 kt iš Pietryčių
Išsisklaidę debesys ne aukštis 2000 ft
Mažai debesys ne aukštis 2200 ft, Liūtiniai kamuoliniai debesys.
Tapsmas
nuo 22 metu 01 UTC su 22 metu 03 UTC
Vėjas 6 kt iš Šiaurės

TAF: MKJP 211115Z 2112/2212 36006KT 9999 FEW022 BECMG 2114/2116 14015KT SCT020 FEW022CB BECMG 2201/2203 36006KT

Orai ataskaitas ir orų prognozės (METAR, TAF).

turimą stotys yra geltonos ir raudonos taškus žemėlapyje.

Perkelti pele per norėdami pamatyti stoties vardą.

Tada spustelėkite, norėdami matyti oro stebėjimo ir prognozės.

Norėdami pakeisti žemėlapį: spustelėkite ant žalios mygtukų su juodo kryžiaus žemyn,; žalią mygtuką su brūkšneliu, jei norite nutolinti; arba žalių rodyklių gretimoms žemėlapius.


METAR-TAF: